createdAt,value
2023-04-15T00:01:04.820Z,37.85
2023-04-15T00:03:32.170Z,36.55
2023-04-15T00:06:00.250Z,32.22
2023-04-15T00:08:27.700Z,33.38
2023-04-15T00:10:54.605Z,30.95
2023-04-15T00:13:21.724Z,32.28
2023-04-15T00:15:48.871Z,34.03
2023-04-15T00:18:16.028Z,33.13
2023-04-15T00:20:42.884Z,30.15
2023-04-15T00:23:09.822Z,32.10
2023-04-15T00:25:36.983Z,29.25
2023-04-15T00:28:04.221Z,36.28
2023-04-15T00:30:31.748Z,55.20
2023-04-15T00:32:58.729Z,42.45
2023-04-15T00:35:25.725Z,32.92
2023-04-15T00:37:52.976Z,27.35
2023-04-15T00:40:22.109Z,30.35
2023-04-15T00:42:48.956Z,25.85
2023-04-15T00:45:16.106Z,27.05
2023-04-15T00:47:44.774Z,26.38
2023-04-15T00:50:13.067Z,26.60
2023-04-15T00:52:41.180Z,24.67
2023-04-15T00:55:09.585Z,26.05
2023-04-15T00:57:37.446Z,26.63
2023-04-15T01:00:08.239Z,30.77
2023-04-15T01:02:37.068Z,27.48
2023-04-15T01:05:04.627Z,29.10
2023-04-15T01:07:32.409Z,32.15
2023-04-15T01:09:59.611Z,32.78
2023-04-15T01:12:28.258Z,31.08
2023-04-15T01:14:56.476Z,32.88
2023-04-15T01:17:25.466Z,35.50
2023-04-15T01:19:53.412Z,32.72
2023-04-15T01:22:20.424Z,31.77
2023-04-15T01:25:02.637Z,34.00
2023-04-15T01:27:30.680Z,36.90
2023-04-15T01:29:57.786Z,38.42
2023-04-15T01:32:25.419Z,37.38
2023-04-15T01:34:52.348Z,40.65
2023-04-15T01:37:19.287Z,38.53
2023-04-15T01:39:46.759Z,36.83
2023-04-15T01:42:13.625Z,38.03
2023-04-15T01:44:40.487Z,45.58
2023-04-15T01:47:07.494Z,51.35
2023-04-15T01:49:35.030Z,43.75
2023-04-15T01:52:01.918Z,41.08
2023-04-15T01:54:28.879Z,38.88
2023-04-15T01:56:57.079Z,48.00
2023-04-15T01:59:24.016Z,42.28
2023-04-15T02:01:51.180Z,45.03
2023-04-15T02:04:18.597Z,42.90
2023-04-15T02:06:46.341Z,41.63
2023-04-15T02:09:13.672Z,59.47
2023-04-15T02:11:40.582Z,54.28
2023-04-15T02:14:07.461Z,56.72
2023-04-15T02:16:34.956Z,52.15
2023-04-15T02:19:02.420Z,46.33
2023-04-15T02:21:30.528Z,44.40
2023-04-15T02:23:57.664Z,46.00
2023-04-15T02:26:25.815Z,45.30
2023-04-15T02:28:52.738Z,48.63
2023-04-15T02:31:19.822Z,48.55
2023-04-15T02:33:47.096Z,39.72
2023-04-15T02:36:13.960Z,43.17
2023-04-15T02:38:42.799Z,46.50
2023-04-15T02:41:12.971Z,45.22
2023-04-15T02:43:40.234Z,49.97
2023-04-15T02:46:07.380Z,60.85
2023-04-15T02:48:34.517Z,54.88
2023-04-15T02:51:23.082Z,60.88
2023-04-15T02:53:50.897Z,66.18
2023-04-15T02:56:19.579Z,72.05
2023-04-15T02:58:46.801Z,65.25
2023-04-15T03:01:14.235Z,78.57
2023-04-15T03:03:41.642Z,68.75
2023-04-15T03:06:09.269Z,75.75
2023-04-15T03:08:36.640Z,78.22
2023-04-15T03:11:04.336Z,83.05
2023-04-15T03:13:31.813Z,70.45
2023-04-15T03:15:58.702Z,63.28
2023-04-15T03:18:25.876Z,58.45
2023-04-15T03:20:52.889Z,55.88
2023-04-15T03:23:20.019Z,47.40
2023-04-15T03:25:46.882Z,42.83
2023-04-15T03:28:13.924Z,50.72
2023-04-15T03:30:41.172Z,49.08
2023-04-15T03:33:08.818Z,51.08
2023-04-15T03:35:35.764Z,64.18
2023-04-15T03:38:02.594Z,59.85
2023-04-15T03:40:29.550Z,57.03
2023-04-15T03:42:56.588Z,48.50
2023-04-15T03:45:23.855Z,46.75
2023-04-15T03:47:50.840Z,48.30
2023-04-15T03:50:18.184Z,47.42
2023-04-15T03:52:45.950Z,42.28
2023-04-15T03:55:12.936Z,41.38
2023-04-15T03:57:39.979Z,39.25
2023-04-15T04:00:09.554Z,43.38
2023-04-15T04:02:37.088Z,48.78
2023-04-15T04:05:04.775Z,45.53
2023-04-15T04:07:32.603Z,44.75
2023-04-15T04:09:59.450Z,53.65
2023-04-15T04:12:26.533Z,48.70
2023-04-15T04:14:53.712Z,44.45
2023-04-15T04:17:20.804Z,50.25
2023-04-15T04:19:47.947Z,58.13
2023-04-15T04:22:14.828Z,63.90
2023-04-15T04:24:41.663Z,75.25
2023-04-15T04:27:08.554Z,83.07
2023-04-15T04:29:35.426Z,81.63
2023-04-15T04:32:02.312Z,60.85
2023-04-15T04:34:29.224Z,52.28
2023-04-15T04:36:56.233Z,50.22
2023-04-15T04:39:23.161Z,50.67
2023-04-15T04:41:52.495Z,52.53
2023-04-15T04:44:19.421Z,53.45
2023-04-15T04:46:46.649Z,42.22
2023-04-15T04:49:13.519Z,44.75
2023-04-15T04:51:40.500Z,53.90
2023-04-15T04:54:07.868Z,52.85
2023-04-15T04:56:34.991Z,49.28
2023-04-15T04:59:02.405Z,57.75
2023-04-15T05:01:29.546Z,60.05
2023-04-15T05:03:56.835Z,58.95
2023-04-15T05:06:23.860Z,58.00
2023-04-15T05:08:51.252Z,57.53
2023-04-15T05:11:18.137Z,61.70
2023-04-15T05:13:45.171Z,52.00
2023-04-15T05:16:12.594Z,168.25
2023-04-15T05:18:39.479Z,181.35
2023-04-15T05:21:07.062Z,302.38
2023-04-15T05:23:34.348Z,468.85
2023-04-15T05:26:01.375Z,406.65
2023-04-15T05:28:28.237Z,408.45
2023-04-15T05:30:55.704Z,170.50
2023-04-15T05:33:23.561Z,339.88
2023-04-15T05:35:50.760Z,206.07
2023-04-15T05:38:17.625Z,238.52
2023-04-15T05:40:44.544Z,501.90
2023-04-15T05:43:11.888Z,159.32
2023-04-15T05:45:38.752Z,285.58
2023-04-15T05:48:05.889Z,170.20
2023-04-15T05:50:32.937Z,148.25
2023-04-15T05:52:59.886Z,406.90
2023-04-15T05:55:27.691Z,310.05
2023-04-15T05:57:54.560Z,174.50
2023-04-15T06:00:21.895Z,300.10
2023-04-15T06:02:48.874Z,180.35
2023-04-15T06:05:15.963Z,176.65
2023-04-15T06:07:45.515Z,205.80
2023-04-15T06:10:13.906Z,182.13
2023-04-15T06:12:41.086Z,127.28
2023-04-15T06:15:10.794Z,249.75
2023-04-15T06:17:37.749Z,185.85
2023-04-15T06:20:05.295Z,225.05
2023-04-15T06:22:32.189Z,254.38
2023-04-15T06:24:59.077Z,169.35
2023-04-15T06:27:26.113Z,425.00
2023-04-15T06:29:53.016Z,147.38
2023-04-15T06:32:19.921Z,82.78
2023-04-15T06:34:47.228Z,126.00
2023-04-15T06:37:16.575Z,154.25
2023-04-15T06:39:45.026Z,199.70
2023-04-15T06:42:12.397Z,129.88
2023-04-15T06:44:40.114Z,91.70
2023-04-15T06:47:07.102Z,118.53
2023-04-15T06:49:34.181Z,206.25
2023-04-15T06:52:01.866Z,103.93
2023-04-15T06:54:28.722Z,108.88
2023-04-15T06:56:55.972Z,160.43
2023-04-15T06:59:22.839Z,102.85
2023-04-15T07:01:50.023Z,155.05
2023-04-15T07:04:17.158Z,87.93
2023-04-15T07:06:44.788Z,127.15
2023-04-15T07:09:12.086Z,102.55
2023-04-15T07:11:38.928Z,120.32
2023-04-15T07:14:06.193Z,119.05
2023-04-15T07:16:33.237Z,96.50
2023-04-15T07:19:00.287Z,103.68
2023-04-15T07:21:27.945Z,66.60
2023-04-15T07:23:54.875Z,66.95
2023-04-15T07:26:21.974Z,77.65
2023-04-15T07:28:49.756Z,65.97
2023-04-15T07:31:17.912Z,56.58
2023-04-15T07:33:45.289Z,53.10
2023-04-15T07:36:12.154Z,58.17
2023-04-15T07:38:39.942Z,52.25
2023-04-15T07:41:06.939Z,55.35
2023-04-15T07:43:34.187Z,53.78
2023-04-15T07:46:01.080Z,52.05
2023-04-15T07:48:27.943Z,53.67
2023-04-15T07:50:54.789Z,45.63
2023-04-15T07:53:21.695Z,46.30
2023-04-15T07:55:48.526Z,43.63
2023-04-15T07:58:15.911Z,46.80
2023-04-15T08:00:42.790Z,38.55
2023-04-15T08:03:09.889Z,40.65
2023-04-15T08:05:36.980Z,39.22
2023-04-15T08:08:03.921Z,40.08
2023-04-15T08:10:31.021Z,41.47
2023-04-15T08:12:57.929Z,37.17
2023-04-15T08:15:25.843Z,34.70
2023-04-15T08:17:52.927Z,36.83
2023-04-15T08:20:20.877Z,32.80
2023-04-15T08:22:52.148Z,34.75
2023-04-15T08:25:20.332Z,33.67
2023-04-15T08:27:47.566Z,34.30
2023-04-15T08:30:14.833Z,27.52
2023-04-15T08:32:46.530Z,28.52
2023-04-15T08:35:14.352Z,33.13
2023-04-15T08:37:41.520Z,29.13
2023-04-15T08:40:10.143Z,28.13
2023-04-15T08:42:49.590Z,27.45
2023-04-15T08:45:18.527Z,23.35
2023-04-15T08:47:47.148Z,24.02
2023-04-15T08:50:15.673Z,21.75
2023-04-15T08:52:42.846Z,25.35
2023-04-15T08:55:11.850Z,24.08
2023-04-15T08:57:40.060Z,24.90
2023-04-15T09:00:10.021Z,23.00
2023-04-15T09:02:37.419Z,20.27
2023-04-15T09:05:06.782Z,19.83
2023-04-15T09:07:36.093Z,16.42
2023-04-15T09:10:05.012Z,16.13
2023-04-15T09:12:37.802Z,15.43
2023-04-15T09:15:05.280Z,15.48
2023-04-15T09:17:34.877Z,14.02
2023-04-15T09:20:14.867Z,14.52
2023-04-15T09:22:45.171Z,15.30
2023-04-15T09:25:32.162Z,13.82
2023-04-15T09:28:02.341Z,14.27
2023-04-15T09:30:30.015Z,14.10
2023-04-15T09:33:00.045Z,14.73
2023-04-15T09:35:30.344Z,11.77
2023-04-15T09:38:10.248Z,9.63
2023-04-15T09:40:43.490Z,8.98
2023-04-15T09:43:13.229Z,10.75
2023-04-15T09:45:49.172Z,9.40
2023-04-15T09:48:27.036Z,9.30
2023-04-15T09:50:54.616Z,9.25
2023-04-15T09:53:23.866Z,8.63
2023-04-15T09:55:58.832Z,8.35
2023-04-15T09:58:31.805Z,9.25
2023-04-15T10:01:02.097Z,7.72
2023-04-15T10:03:36.187Z,10.35
2023-04-15T10:06:06.482Z,8.90
2023-04-15T10:08:35.268Z,8.38
2023-04-15T10:11:02.941Z,10.05
2023-04-15T10:13:37.753Z,11.52
2023-04-15T10:16:12.551Z,8.85
2023-04-15T10:18:45.355Z,10.95
2023-04-15T10:21:18.846Z,12.48
2023-04-15T10:23:47.043Z,10.02
2023-04-15T10:26:17.437Z,8.10
2023-04-15T10:28:47.396Z,10.10
2023-04-15T10:31:15.378Z,9.20
2023-04-15T10:33:45.092Z,9.27
2023-04-15T10:36:13.429Z,12.93
2023-04-15T10:38:45.977Z,11.73
2023-04-15T10:41:19.478Z,8.00
2023-04-15T10:44:05.430Z,9.32
2023-04-15T10:46:46.989Z,9.13
2023-04-15T10:49:25.422Z,9.98
2023-04-15T10:51:58.728Z,8.95
2023-04-15T10:54:25.518Z,8.70
2023-04-15T10:57:08.966Z,7.30
2023-04-15T11:00:01.251Z,8.63
2023-04-15T11:02:55.022Z,8.43
2023-04-15T11:05:44.190Z,8.27
2023-04-15T11:08:12.456Z,18.13
2023-04-15T11:10:39.290Z,8.35
2023-04-15T11:13:12.322Z,8.80
2023-04-15T11:15:47.518Z,7.30
2023-04-15T11:18:24.037Z,8.43
2023-04-15T11:20:59.797Z,11.55
2023-04-15T11:23:49.528Z,10.52
2023-04-15T11:26:16.476Z,7.90
2023-04-15T11:28:45.734Z,6.88
2023-04-15T11:31:18.638Z,8.00
2023-04-15T11:34:02.772Z,7.70
2023-04-15T11:36:32.364Z,8.32
2023-04-15T11:39:00.531Z,7.68
2023-04-15T11:41:27.707Z,7.35
2023-04-15T11:43:54.852Z,7.57
2023-04-15T11:46:23.229Z,8.40
2023-04-15T11:48:50.582Z,7.82
2023-04-15T11:51:17.738Z,9.35
2023-04-15T11:53:50.777Z,7.55
2023-04-15T11:56:28.703Z,8.43
2023-04-15T11:59:01.503Z,6.55
2023-04-15T12:01:46.859Z,7.30
2023-04-15T12:06:43.256Z,8.15
2023-04-15T12:09:13.255Z,8.55
2023-04-15T12:11:50.312Z,8.48
2023-04-15T12:14:31.399Z,6.65
2023-04-15T12:17:07.422Z,6.50
2023-04-15T12:19:43.226Z,6.20
2023-04-15T12:22:14.129Z,6.60
2023-04-15T12:24:48.505Z,6.55
2023-04-15T12:27:17.204Z,6.73
2023-04-15T12:29:44.274Z,6.40
2023-04-15T12:32:16.080Z,6.80
2023-04-15T12:34:54.671Z,7.68
2023-04-15T12:37:22.243Z,7.75
2023-04-15T12:39:50.728Z,6.80
2023-04-15T12:42:18.873Z,7.40
2023-04-15T12:44:46.638Z,5.65
2023-04-15T12:47:14.493Z,7.32
2023-04-15T12:49:41.723Z,6.30
2023-04-15T12:52:08.691Z,6.70
2023-04-15T12:54:36.606Z,8.05
2023-04-15T12:57:06.799Z,7.70
2023-04-15T12:59:35.512Z,6.03
2023-04-15T13:02:04.647Z,8.70
2023-04-15T13:04:32.211Z,6.03
2023-04-15T13:06:59.293Z,5.65
2023-04-15T13:09:26.262Z,6.70
2023-04-15T13:11:53.423Z,6.47
2023-04-15T13:14:20.449Z,6.05
2023-04-15T13:16:47.448Z,6.40
2023-04-15T13:19:15.060Z,5.03
2023-04-15T13:21:41.985Z,6.75
2023-04-15T13:24:09.921Z,5.40
2023-04-15T13:26:36.933Z,4.13
2023-04-15T13:29:03.826Z,4.65
2023-04-15T13:31:31.372Z,5.45
2023-04-15T13:33:58.260Z,4.25
2023-04-15T13:36:25.334Z,4.25
2023-04-15T13:38:52.353Z,4.43
2023-04-15T13:41:20.294Z,5.88
2023-04-15T13:43:47.494Z,4.35
2023-04-15T13:46:14.948Z,4.28
2023-04-15T13:48:42.108Z,3.60
2023-04-15T13:51:09.110Z,4.57
2023-04-15T13:53:39.210Z,6.03
2023-04-15T13:56:10.730Z,4.75
2023-04-15T13:58:38.641Z,8.05
2023-04-15T14:01:07.246Z,6.75
2023-04-15T14:03:38.653Z,4.80
2023-04-15T14:06:08.528Z,3.80
2023-04-15T14:08:35.407Z,4.68
2023-04-15T14:11:02.435Z,7.35
2023-04-15T14:13:29.620Z,4.18
2023-04-15T14:15:57.566Z,3.85
2023-04-15T14:18:24.542Z,7.07
2023-04-15T14:20:51.982Z,6.10
2023-04-15T14:23:18.902Z,3.92
2023-04-15T14:25:47.919Z,4.82
2023-04-15T14:28:15.527Z,5.18
2023-04-15T14:30:42.769Z,5.32
2023-04-15T14:33:09.869Z,4.43
2023-04-15T14:35:36.844Z,5.32
2023-04-15T14:38:04.217Z,5.05
2023-04-15T14:40:31.225Z,6.72
2023-04-15T14:42:58.078Z,5.13
2023-04-15T14:45:25.133Z,4.63
2023-04-15T14:47:53.563Z,6.10
2023-04-15T14:50:20.593Z,4.47
2023-04-15T14:52:47.590Z,3.45
2023-04-15T14:55:14.870Z,6.22
2023-04-15T14:57:43.255Z,4.65
2023-04-15T15:00:14.534Z,7.20
2023-04-15T15:02:43.641Z,7.68
2023-04-15T15:05:12.338Z,4.45
2023-04-15T15:07:41.205Z,4.50
2023-04-15T15:10:08.730Z,4.75
2023-04-15T15:12:36.162Z,6.68
2023-04-15T15:15:15.711Z,5.05
2023-04-15T15:17:52.446Z,3.10
2023-04-15T15:20:19.685Z,3.15
2023-04-15T15:22:46.650Z,5.25
2023-04-15T15:25:13.576Z,4.78
2023-04-15T15:27:40.637Z,3.30
2023-04-15T15:30:08.287Z,6.15
2023-04-15T15:32:35.760Z,4.57
2023-04-15T15:35:02.816Z,4.95
2023-04-15T15:37:31.727Z,3.20
2023-04-15T15:39:58.897Z,5.00
2023-04-15T15:42:25.786Z,4.68
2023-04-15T15:44:53.411Z,4.47
2023-04-15T15:47:22.746Z,2.63
2023-04-15T15:49:49.958Z,4.93
2023-04-15T15:52:16.837Z,4.38
2023-04-15T15:54:44.089Z,4.43
2023-04-15T15:57:11.536Z,3.42
2023-04-15T15:59:41.434Z,4.43
2023-04-15T16:02:12.041Z,3.75
2023-04-15T16:04:40.114Z,4.50
2023-04-15T16:07:07.206Z,5.68
2023-04-15T16:09:34.123Z,3.35
2023-04-15T16:12:02.400Z,5.57
2023-04-15T16:14:29.319Z,5.18
2023-04-15T16:16:56.792Z,4.18
2023-04-15T16:19:23.842Z,4.47
2023-04-15T16:21:51.370Z,4.28
2023-04-15T16:24:18.513Z,3.47
2023-04-15T16:26:45.614Z,4.43
2023-04-15T16:29:12.583Z,5.00
2023-04-15T16:31:40.309Z,6.70
2023-04-15T16:34:07.322Z,5.05
2023-04-15T16:36:35.891Z,4.07
2023-04-15T16:39:02.983Z,4.45
2023-04-15T16:41:30.106Z,5.75
2023-04-15T16:43:58.898Z,4.65
2023-04-15T16:46:25.900Z,7.20
2023-04-15T16:48:53.153Z,5.43
2023-04-15T16:51:20.019Z,3.78
2023-04-15T16:53:46.973Z,5.07
2023-04-15T16:56:13.919Z,3.65
2023-04-15T16:58:41.013Z,4.82
2023-04-15T17:01:08.678Z,4.57
2023-04-15T17:03:37.116Z,4.25
2023-04-15T17:06:04.465Z,4.53
2023-04-15T17:08:31.333Z,4.82
2023-04-15T17:10:58.812Z,5.07
2023-04-15T17:13:26.850Z,8.70
2023-04-15T17:15:55.768Z,4.68
2023-04-15T17:18:22.838Z,6.30
2023-04-15T17:20:49.750Z,7.40
2023-04-15T17:23:16.695Z,4.20
2023-04-15T17:25:43.682Z,5.75
2023-04-15T17:28:10.757Z,5.80
2023-04-15T17:30:37.809Z,5.00
2023-04-15T17:33:55.287Z,4.68
2023-04-15T17:35:51.691Z,4.35
2023-04-15T17:38:18.760Z,6.28
2023-04-15T17:40:45.687Z,6.00
2023-04-15T17:43:12.678Z,7.10
2023-04-15T17:45:39.616Z,4.35
2023-04-15T17:48:06.655Z,6.25
2023-04-15T17:50:33.643Z,5.50
2023-04-15T17:53:00.744Z,9.80
2023-04-15T17:55:27.624Z,13.90
2023-04-15T17:57:54.703Z,14.55
2023-04-15T18:00:21.751Z,13.88
2023-04-15T18:02:49.057Z,10.10
2023-04-15T18:05:18.997Z,7.22
2023-04-15T18:07:46.301Z,9.07
2023-04-15T18:10:13.202Z,8.98
2023-04-15T18:12:40.103Z,10.05
2023-04-15T18:15:09.681Z,11.07
2023-04-15T18:17:36.800Z,8.52
2023-04-15T18:20:04.512Z,5.90
2023-04-15T18:22:31.386Z,5.57
2023-04-15T18:25:04.263Z,6.35
2023-04-15T18:27:32.679Z,5.53
2023-04-15T18:30:00.164Z,6.68
2023-04-15T18:32:31.814Z,6.35
2023-04-15T18:34:59.084Z,7.55
2023-04-15T18:37:27.200Z,6.97
2023-04-15T18:39:54.473Z,6.68
2023-04-15T18:42:22.637Z,5.70
2023-04-15T18:44:50.086Z,5.75
2023-04-15T18:47:17.874Z,8.88
2023-04-15T18:49:44.978Z,9.27
2023-04-15T18:52:12.553Z,7.85
2023-04-15T18:54:39.547Z,9.88
2023-04-15T18:57:07.099Z,6.13
2023-04-15T18:59:34.337Z,8.82
2023-04-15T19:02:02.444Z,9.80
2023-04-15T19:04:29.631Z,15.75
2023-04-15T19:06:56.887Z,17.42
2023-04-15T19:09:24.129Z,16.48
2023-04-15T19:11:51.135Z,17.67
2023-04-15T19:14:18.912Z,16.70
2023-04-15T19:16:45.857Z,15.82
2023-04-15T19:19:14.916Z,18.50
2023-04-15T19:21:41.962Z,19.55
2023-04-15T19:24:09.051Z,18.88
2023-04-15T19:26:37.187Z,14.93
2023-04-15T19:29:04.180Z,11.20
2023-04-15T19:31:31.268Z,19.45
2023-04-15T19:33:58.132Z,26.77
2023-04-15T19:36:25.057Z,17.85
2023-04-15T19:38:52.377Z,19.75
2023-04-15T19:41:19.565Z,19.05
2023-04-15T19:43:46.440Z,19.50
2023-04-15T19:46:13.711Z,19.77
2023-04-15T19:48:40.773Z,10.68
2023-04-15T19:51:07.716Z,8.48
2023-04-15T19:53:35.056Z,8.93
2023-04-15T19:56:02.200Z,10.32
2023-04-15T19:58:29.340Z,11.20
2023-04-15T20:00:57.109Z,11.82
2023-04-15T20:03:24.302Z,9.60
2023-04-15T20:05:51.388Z,7.63
2023-04-15T20:08:18.580Z,12.20
2023-04-15T20:10:45.634Z,13.45
2023-04-15T20:13:13.312Z,12.00
2023-04-15T20:15:40.212Z,11.30
2023-04-15T20:18:07.249Z,10.13
2023-04-15T20:20:35.606Z,9.55
2023-04-15T20:23:02.847Z,8.88
2023-04-15T20:25:29.814Z,9.50
2023-04-15T20:28:00.415Z,10.63
2023-04-15T20:30:29.639Z,7.43
2023-04-15T20:32:56.713Z,9.80
2023-04-15T20:35:25.428Z,8.70
2023-04-15T20:37:52.435Z,11.10
2023-04-15T20:40:19.311Z,11.80
2023-04-15T20:42:46.291Z,13.07
2023-04-15T20:45:13.259Z,11.00
2023-04-15T20:47:40.183Z,9.20
2023-04-15T20:50:08.427Z,11.43
2023-04-15T20:52:35.301Z,11.80
2023-04-15T20:55:02.183Z,14.55
2023-04-15T20:57:30.406Z,11.07
2023-04-15T20:59:57.653Z,10.50
2023-04-15T21:02:25.066Z,13.20
2023-04-15T21:04:52.117Z,14.35
2023-04-15T21:07:19.008Z,13.63
2023-04-15T21:09:47.118Z,12.48
2023-04-15T21:12:14.324Z,14.30
2023-04-15T21:14:41.291Z,14.13
2023-04-15T21:17:11.194Z,15.15
2023-04-15T21:19:38.859Z,15.48
2023-04-15T21:22:05.883Z,13.95
2023-04-15T21:24:32.772Z,13.88
2023-04-15T21:26:59.620Z,14.68
2023-04-15T21:29:26.621Z,14.88
2023-04-15T21:31:53.582Z,17.00
2023-04-15T21:34:20.520Z,18.70
2023-04-15T21:36:47.459Z,16.02
2023-04-15T21:39:14.387Z,18.15
2023-04-15T21:41:41.332Z,16.35
2023-04-15T21:44:08.625Z,18.77
2023-04-15T21:46:35.888Z,18.27
2023-04-15T21:49:03.788Z,17.70
2023-04-15T21:51:31.718Z,18.13
2023-04-15T21:53:59.460Z,18.15
2023-04-15T21:56:26.702Z,24.40
2023-04-15T21:58:59.793Z,20.13
2023-04-15T22:01:27.155Z,20.40
2023-04-15T22:03:54.325Z,21.92
2023-04-15T22:06:21.691Z,22.58
2023-04-15T22:08:57.083Z,23.23
2023-04-15T22:11:28.806Z,27.10
2023-04-15T22:13:57.503Z,26.98
2023-04-15T22:16:28.903Z,19.52
2023-04-15T22:18:56.262Z,20.20
2023-04-15T22:21:26.972Z,23.80
2023-04-15T22:24:33.776Z,25.17
2023-04-15T22:26:41.372Z,26.33
2023-04-15T22:29:08.592Z,25.42
2023-04-15T22:31:35.829Z,29.02
2023-04-15T22:34:02.717Z,25.45
2023-04-15T22:36:31.961Z,23.20
2023-04-15T22:38:58.899Z,22.17
2023-04-15T22:41:25.762Z,28.00
2023-04-15T22:43:53.000Z,22.08
2023-04-15T22:46:20.060Z,23.70
2023-04-15T22:48:47.119Z,22.73
2023-04-15T22:51:22.265Z,22.42
2023-04-15T22:53:50.655Z,23.63
2023-04-15T22:56:22.844Z,26.15
2023-04-15T22:58:50.130Z,20.92
2023-04-15T23:01:18.072Z,21.52
2023-04-15T23:03:57.001Z,25.23
2023-04-15T23:06:30.390Z,35.15
2023-04-15T23:08:57.442Z,60.40
2023-04-15T23:11:24.378Z,54.83
2023-04-15T23:13:51.323Z,47.22
2023-04-15T23:16:18.290Z,47.53
2023-04-15T23:18:45.188Z,39.85
2023-04-15T23:21:12.134Z,37.88
2023-04-15T23:23:39.080Z,41.53
2023-04-15T23:26:06.469Z,27.45
2023-04-15T23:28:33.585Z,27.05
2023-04-15T23:31:00.763Z,23.65
2023-04-15T23:33:27.960Z,26.08
2023-04-15T23:35:54.915Z,22.48
2023-04-15T23:38:21.852Z,20.00
2023-04-15T23:40:48.777Z,20.30
2023-04-15T23:43:15.654Z,22.42
2023-04-15T23:45:42.663Z,20.25
2023-04-15T23:48:09.591Z,18.63
2023-04-15T23:50:36.484Z,19.23
2023-04-15T23:53:03.421Z,19.15
2023-04-15T23:55:31.445Z,20.30
2023-04-15T23:57:58.382Z,18.48
